sensor_id;sensor_type;location;lat;lon;timestamp;P1;durP1;ratioP1;P2;durP2;ratioP2
12165;SDS011;6146;48.128;11.476;2023-11-19T00:00:34;3.97;;;2.97;;
12165;SDS011;6146;48.128;11.476;2023-11-19T00:03:00;3.37;;;3.07;;
12165;SDS011;6146;48.128;11.476;2023-11-19T00:05:26;3.47;;;3.17;;
12165;SDS011;6146;48.128;11.476;2023-11-19T00:07:52;3.23;;;2.80;;
12165;SDS011;6146;48.128;11.476;2023-11-19T00:10:18;3.70;;;3.23;;
12165;SDS011;6146;48.128;11.476;2023-11-19T00:12:45;3.03;;;2.77;;
12165;SDS011;6146;48.128;11.476;2023-11-19T00:15:12;2.90;;;2.60;;
12165;SDS011;6146;48.128;11.476;2023-11-19T00:17:44;2.97;;;2.67;;
12165;SDS011;6146;48.128;11.476;2023-11-19T00:20:14;3.37;;;3.00;;
12165;SDS011;6146;48.128;11.476;2023-11-19T00:22:44;2.90;;;2.60;;
12165;SDS011;6146;48.128;11.476;2023-11-19T00:25:13;3.20;;;2.90;;
12165;SDS011;6146;48.128;11.476;2023-11-19T00:27:39;3.53;;;2.70;;
12165;SDS011;6146;48.128;11.476;2023-11-19T00:30:05;2.80;;;2.50;;
12165;SDS011;6146;48.128;11.476;2023-11-19T00:32:32;3.70;;;2.83;;
12165;SDS011;6146;48.128;11.476;2023-11-19T00:34:58;3.00;;;2.70;;
12165;SDS011;6146;48.128;11.476;2023-11-19T00:37:23;3.20;;;2.80;;
12165;SDS011;6146;48.128;11.476;2023-11-19T00:39:49;3.00;;;2.70;;
12165;SDS011;6146;48.128;11.476;2023-11-19T00:42:14;2.67;;;2.47;;
12165;SDS011;6146;48.128;11.476;2023-11-19T00:44:40;2.30;;;1.90;;
12165;SDS011;6146;48.128;11.476;2023-11-19T00:47:06;2.70;;;2.40;;
12165;SDS011;6146;48.128;11.476;2023-11-19T00:49:32;2.53;;;2.20;;
12165;SDS011;6146;48.128;11.476;2023-11-19T00:51:58;2.57;;;2.37;;
12165;SDS011;6146;48.128;11.476;2023-11-19T00:54:24;3.70;;;1.80;;
12165;SDS011;6146;48.128;11.476;2023-11-19T00:56:51;3.07;;;2.20;;
12165;SDS011;6146;48.128;11.476;2023-11-19T00:59:17;2.60;;;2.17;;
12165;SDS011;6146;48.128;11.476;2023-11-19T01:01:43;2.37;;;2.10;;
12165;SDS011;6146;48.128;11.476;2023-11-19T01:04:09;2.77;;;2.37;;
12165;SDS011;6146;48.128;11.476;2023-11-19T01:06:34;2.07;;;1.87;;
12165;SDS011;6146;48.128;11.476;2023-11-19T01:09:00;2.53;;;2.00;;
12165;SDS011;6146;48.128;11.476;2023-11-19T01:11:25;2.00;;;1.80;;
12165;SDS011;6146;48.128;11.476;2023-11-19T01:13:51;2.37;;;2.03;;
12165;SDS011;6146;48.128;11.476;2023-11-19T01:16:17;2.27;;;1.87;;
12165;SDS011;6146;48.128;11.476;2023-11-19T01:18:44;2.50;;;1.83;;
12165;SDS011;6146;48.128;11.476;2023-11-19T01:21:11;3.87;;;1.90;;
12165;SDS011;6146;48.128;11.476;2023-11-19T01:23:37;2.50;;;1.87;;
12165;SDS011;6146;48.128;11.476;2023-11-19T01:26:03;2.07;;;1.90;;
12165;SDS011;6146;48.128;11.476;2023-11-19T01:28:30;2.00;;;1.60;;
12165;SDS011;6146;48.128;11.476;2023-11-19T01:30:56;1.70;;;1.47;;
12165;SDS011;6146;48.128;11.476;2023-11-19T01:33:21;2.50;;;1.90;;
12165;SDS011;6146;48.128;11.476;2023-11-19T01:35:47;2.30;;;1.80;;
12165;SDS011;6146;48.128;11.476;2023-11-19T01:38:12;2.47;;;1.97;;
12165;SDS011;6146;48.128;11.476;2023-11-19T01:40:38;3.00;;;1.90;;
12165;SDS011;6146;48.128;11.476;2023-11-19T01:43:03;4.10;;;1.87;;
12165;SDS011;6146;48.128;11.476;2023-11-19T01:45:30;1.87;;;1.60;;
12165;SDS011;6146;48.128;11.476;2023-11-19T01:47:56;1.93;;;1.70;;
12165;SDS011;6146;48.128;11.476;2023-11-19T01:50:23;1.97;;;1.77;;
12165;SDS011;6146;48.128;11.476;2023-11-19T01:52:53;2.23;;;1.80;;
12165;SDS011;6146;48.128;11.476;2023-11-19T01:55:22;1.87;;;1.77;;
12165;SDS011;6146;48.128;11.476;2023-11-19T01:57:48;1.93;;;1.50;;
12165;SDS011;6146;48.128;11.476;2023-11-19T02:00:16;2.07;;;1.80;;
12165;SDS011;6146;48.128;11.476;2023-11-19T02:02:44;1.90;;;1.73;;
12165;SDS011;6146;48.128;11.476;2023-11-19T02:05:11;1.67;;;1.57;;
12165;SDS011;6146;48.128;11.476;2023-11-19T02:07:38;1.93;;;1.40;;
12165;SDS011;6146;48.128;11.476;2023-11-19T02:10:04;1.80;;;1.70;;
12165;SDS011;6146;48.128;11.476;2023-11-19T02:12:30;1.83;;;1.60;;
12165;SDS011;6146;48.128;11.476;2023-11-19T02:15:00;1.80;;;1.47;;
12165;SDS011;6146;48.128;11.476;2023-11-19T02:17:28;1.50;;;1.40;;
12165;SDS011;6146;48.128;11.476;2023-11-19T02:19:56;1.70;;;1.60;;
12165;SDS011;6146;48.128;11.476;2023-11-19T02:22:23;1.67;;;1.40;;
12165;SDS011;6146;48.128;11.476;2023-11-19T02:24:49;2.30;;;1.43;;
12165;SDS011;6146;48.128;11.476;2023-11-19T02:30:05;1.60;;;1.30;;
12165;SDS011;6146;48.128;11.476;2023-11-19T02:32:33;1.50;;;1.40;;
12165;SDS011;6146;48.128;11.476;2023-11-19T02:35:00;1.33;;;1.23;;
12165;SDS011;6146;48.128;11.476;2023-11-19T02:37:26;1.37;;;1.20;;
12165;SDS011;6146;48.128;11.476;2023-11-19T02:39:53;1.37;;;1.27;;
12165;SDS011;6146;48.128;11.476;2023-11-19T02:42:18;1.40;;;1.30;;
12165;SDS011;6146;48.128;11.476;2023-11-19T02:44:44;1.00;;;1.00;;
12165;SDS011;6146;48.128;11.476;2023-11-19T02:47:11;1.10;;;1.00;;
12165;SDS011;6146;48.128;11.476;2023-11-19T02:49:36;1.20;;;1.10;;
12165;SDS011;6146;48.128;11.476;2023-11-19T02:52:02;2.50;;;1.20;;
12165;SDS011;6146;48.128;11.476;2023-11-19T02:54:30;1.00;;;0.90;;
12165;SDS011;6146;48.128;11.476;2023-11-19T02:56:59;1.17;;;1.00;;
12165;SDS011;6146;48.128;11.476;2023-11-19T02:59:26;1.70;;;1.00;;
12165;SDS011;6146;48.128;11.476;2023-11-19T03:01:53;1.20;;;1.10;;
12165;SDS011;6146;48.128;11.476;2023-11-19T03:04:19;1.10;;;1.00;;
12165;SDS011;6146;48.128;11.476;2023-11-19T03:06:48;1.10;;;1.00;;
12165;SDS011;6146;48.128;11.476;2023-11-19T03:09:14;1.03;;;0.93;;
12165;SDS011;6146;48.128;11.476;2023-11-19T03:11:39;2.90;;;1.10;;
12165;SDS011;6146;48.128;11.476;2023-11-19T03:14:05;0.70;;;0.70;;
12165;SDS011;6146;48.128;11.476;2023-11-19T03:16:31;0.90;;;0.90;;
12165;SDS011;6146;48.128;11.476;2023-11-19T03:18:57;0.90;;;0.87;;
12165;SDS011;6146;48.128;11.476;2023-11-19T03:21:28;0.87;;;0.87;;
12165;SDS011;6146;48.128;11.476;2023-11-19T03:23:54;1.07;;;0.93;;
12165;SDS011;6146;48.128;11.476;2023-11-19T03:26:20;0.80;;;0.80;;
12165;SDS011;6146;48.128;11.476;2023-11-19T03:28:47;1.70;;;0.90;;
12165;SDS011;6146;48.128;11.476;2023-11-19T03:31:12;1.43;;;1.33;;
12165;SDS011;6146;48.128;11.476;2023-11-19T03:33:39;1.10;;;0.90;;
12165;SDS011;6146;48.128;11.476;2023-11-19T03:36:04;1.47;;;0.90;;
12165;SDS011;6146;48.128;11.476;2023-11-19T03:38:30;0.77;;;0.70;;
12165;SDS011;6146;48.128;11.476;2023-11-19T03:40:56;0.70;;;0.70;;
12165;SDS011;6146;48.128;11.476;2023-11-19T03:43:21;1.07;;;0.80;;
12165;SDS011;6146;48.128;11.476;2023-11-19T03:45:47;0.87;;;0.73;;
12165;SDS011;6146;48.128;11.476;2023-11-19T03:48:13;0.97;;;0.77;;
12165;SDS011;6146;48.128;11.476;2023-11-19T03:50:41;0.70;;;0.70;;
12165;SDS011;6146;48.128;11.476;2023-11-19T03:53:07;0.73;;;0.60;;
12165;SDS011;6146;48.128;11.476;2023-11-19T03:55:32;0.77;;;0.77;;
12165;SDS011;6146;48.128;11.476;2023-11-19T03:57:58;0.70;;;0.70;;
12165;SDS011;6146;48.128;11.476;2023-11-19T04:00:23;0.80;;;0.80;;
12165;SDS011;6146;48.128;11.476;2023-11-19T04:02:49;0.80;;;0.70;;
12165;SDS011;6146;48.128;11.476;2023-11-19T04:05:14;0.43;;;0.43;;
12165;SDS011;6146;48.128;11.476;2023-11-19T04:07:40;1.03;;;0.90;;
12165;SDS011;6146;48.128;11.476;2023-11-19T04:10:06;0.70;;;0.70;;
12165;SDS011;6146;48.128;11.476;2023-11-19T04:12:31;0.80;;;0.80;;
12165;SDS011;6146;48.128;11.476;2023-11-19T04:14:57;0.80;;;0.80;;
12165;SDS011;6146;48.128;11.476;2023-11-19T04:17:23;0.60;;;0.60;;
12165;SDS011;6146;48.128;11.476;2023-11-19T04:19:48;0.83;;;0.73;;
12165;SDS011;6146;48.128;11.476;2023-11-19T04:22:14;1.17;;;0.60;;
12165;SDS011;6146;48.128;11.476;2023-11-19T04:24:40;0.87;;;0.87;;
12165;SDS011;6146;48.128;11.476;2023-11-19T04:27:05;1.00;;;0.60;;
12165;SDS011;6146;48.128;11.476;2023-11-19T04:29:31;0.70;;;0.70;;
12165;SDS011;6146;48.128;11.476;2023-11-19T04:31:57;0.63;;;0.63;;
12165;SDS011;6146;48.128;11.476;2023-11-19T04:34:23;1.00;;;0.70;;
12165;SDS011;6146;48.128;11.476;2023-11-19T04:36:49;0.70;;;0.70;;
12165;SDS011;6146;48.128;11.476;2023-11-19T04:39:14;0.87;;;0.40;;
12165;SDS011;6146;48.128;11.476;2023-11-19T04:41:50;0.67;;;0.67;;
12165;SDS011;6146;48.128;11.476;2023-11-19T04:44:18;0.60;;;0.60;;
12165;SDS011;6146;48.128;11.476;2023-11-19T04:46:44;1.00;;;0.80;;
12165;SDS011;6146;48.128;11.476;2023-11-19T04:49:10;1.00;;;0.77;;
12165;SDS011;6146;48.128;11.476;2023-11-19T04:51:40;1.53;;;0.60;;
12165;SDS011;6146;48.128;11.476;2023-11-19T04:54:07;0.90;;;0.90;;
12165;SDS011;6146;48.128;11.476;2023-11-19T04:56:33;0.60;;;0.60;;
12165;SDS011;6146;48.128;11.476;2023-11-19T04:59:00;0.97;;;0.70;;
12165;SDS011;6146;48.128;11.476;2023-11-19T05:01:26;1.07;;;0.80;;
12165;SDS011;6146;48.128;11.476;2023-11-19T05:03:52;0.77;;;0.77;;
12165;SDS011;6146;48.128;11.476;2023-11-19T05:06:18;0.87;;;0.87;;
12165;SDS011;6146;48.128;11.476;2023-11-19T05:08:44;0.90;;;0.90;;
12165;SDS011;6146;48.128;11.476;2023-11-19T05:11:09;0.97;;;0.80;;
12165;SDS011;6146;48.128;11.476;2023-11-19T05:13:37;0.80;;;0.80;;
12165;SDS011;6146;48.128;11.476;2023-11-19T05:16:03;1.13;;;1.00;;
12165;SDS011;6146;48.128;11.476;2023-11-19T05:18:29;0.77;;;0.77;;
12165;SDS011;6146;48.128;11.476;2023-11-19T05:20:54;0.77;;;0.77;;
12165;SDS011;6146;48.128;11.476;2023-11-19T05:23:20;1.27;;;1.13;;
12165;SDS011;6146;48.128;11.476;2023-11-19T05:25:46;1.17;;;1.00;;
12165;SDS011;6146;48.128;11.476;2023-11-19T05:28:12;0.80;;;0.80;;
12165;SDS011;6146;48.128;11.476;2023-11-19T05:30:39;0.70;;;0.70;;
12165;SDS011;6146;48.128;11.476;2023-11-19T05:33:05;0.83;;;0.80;;
12165;SDS011;6146;48.128;11.476;2023-11-19T05:35:31;0.60;;;0.60;;
12165;SDS011;6146;48.128;11.476;2023-11-19T05:37:57;1.00;;;1.00;;
12165;SDS011;6146;48.128;11.476;2023-11-19T05:40:23;1.00;;;1.00;;
12165;SDS011;6146;48.128;11.476;2023-11-19T05:42:48;1.00;;;1.00;;
12165;SDS011;6146;48.128;11.476;2023-11-19T05:45:14;0.77;;;0.77;;
12165;SDS011;6146;48.128;11.476;2023-11-19T05:47:40;0.87;;;0.87;;
12165;SDS011;6146;48.128;11.476;2023-11-19T05:50:06;1.20;;;0.90;;
12165;SDS011;6146;48.128;11.476;2023-11-19T05:52:33;0.80;;;0.80;;
12165;SDS011;6146;48.128;11.476;2023-11-19T05:55:02;0.80;;;0.80;;
12165;SDS011;6146;48.128;11.476;2023-11-19T05:57:34;1.00;;;0.90;;
12165;SDS011;6146;48.128;11.476;2023-11-19T06:00:01;1.10;;;1.00;;
12165;SDS011;6146;48.128;11.476;2023-11-19T06:02:28;1.20;;;0.87;;
12165;SDS011;6146;48.128;11.476;2023-11-19T06:04:54;0.80;;;0.80;;
12165;SDS011;6146;48.128;11.476;2023-11-19T06:07:19;0.80;;;0.80;;
12165;SDS011;6146;48.128;11.476;2023-11-19T06:09:45;0.73;;;0.73;;
12165;SDS011;6146;48.128;11.476;2023-11-19T06:12:10;1.60;;;0.83;;
12165;SDS011;6146;48.128;11.476;2023-11-19T06:14:37;0.70;;;0.70;;
12165;SDS011;6146;48.128;11.476;2023-11-19T06:17:02;0.90;;;0.70;;
12165;SDS011;6146;48.128;11.476;2023-11-19T06:19:29;0.60;;;0.60;;
12165;SDS011;6146;48.128;11.476;2023-11-19T06:21:55;0.60;;;0.60;;
12165;SDS011;6146;48.128;11.476;2023-11-19T06:24:21;0.70;;;0.70;;
12165;SDS011;6146;48.128;11.476;2023-11-19T06:26:47;0.57;;;0.57;;
12165;SDS011;6146;48.128;11.476;2023-11-19T06:29:12;0.63;;;0.63;;
12165;SDS011;6146;48.128;11.476;2023-11-19T06:31:43;0.80;;;0.80;;
12165;SDS011;6146;48.128;11.476;2023-11-19T06:34:09;0.70;;;0.70;;
12165;SDS011;6146;48.128;11.476;2023-11-19T06:36:35;0.70;;;0.70;;
12165;SDS011;6146;48.128;11.476;2023-11-19T06:39:00;0.50;;;0.50;;
12165;SDS011;6146;48.128;11.476;2023-11-19T06:41:26;0.90;;;0.50;;
12165;SDS011;6146;48.128;11.476;2023-11-19T06:43:54;0.77;;;0.77;;
12165;SDS011;6146;48.128;11.476;2023-11-19T06:46:20;0.40;;;0.40;;
12165;SDS011;6146;48.128;11.476;2023-11-19T06:48:45;0.53;;;0.53;;
12165;SDS011;6146;48.128;11.476;2023-11-19T06:51:11;0.50;;;0.50;;
12165;SDS011;6146;48.128;11.476;2023-11-19T06:53:37;0.40;;;0.40;;
12165;SDS011;6146;48.128;11.476;2023-11-19T06:56:04;0.50;;;0.50;;
12165;SDS011;6146;48.128;11.476;2023-11-19T06:58:31;0.70;;;0.70;;
12165;SDS011;6146;48.128;11.476;2023-11-19T07:01:00;0.63;;;0.60;;
12165;SDS011;6146;48.128;11.476;2023-11-19T07:03:26;0.40;;;0.40;;
12165;SDS011;6146;48.128;11.476;2023-11-19T07:05:51;0.47;;;0.47;;
12165;SDS011;6146;48.128;11.476;2023-11-19T07:08:17;0.67;;;0.67;;
12165;SDS011;6146;48.128;11.476;2023-11-19T07:10:42;0.60;;;0.50;;
12165;SDS011;6146;48.128;11.476;2023-11-19T07:13:08;0.40;;;0.40;;
12165;SDS011;6146;48.128;11.476;2023-11-19T07:15:33;0.43;;;0.43;;
12165;SDS011;6146;48.128;11.476;2023-11-19T07:17:59;0.80;;;0.33;;
12165;SDS011;6146;48.128;11.476;2023-11-19T07:20:25;0.30;;;0.30;;
12165;SDS011;6146;48.128;11.476;2023-11-19T07:22:51;0.37;;;0.37;;
12165;SDS011;6146;48.128;11.476;2023-11-19T07:25:17;0.37;;;0.37;;
12165;SDS011;6146;48.128;11.476;2023-11-19T07:27:43;0.50;;;0.50;;
12165;SDS011;6146;48.128;11.476;2023-11-19T07:30:08;0.60;;;0.53;;
12165;SDS011;6146;48.128;11.476;2023-11-19T07:32:34;0.47;;;0.33;;
12165;SDS011;6146;48.128;11.476;2023-11-19T07:35:00;0.50;;;0.50;;
12165;SDS011;6146;48.128;11.476;2023-11-19T07:37:25;0.43;;;0.43;;
12165;SDS011;6146;48.128;11.476;2023-11-19T07:39:51;0.30;;;0.30;;
12165;SDS011;6146;48.128;11.476;2023-11-19T07:42:16;0.53;;;0.53;;
12165;SDS011;6146;48.128;11.476;2023-11-19T07:44:45;0.30;;;0.30;;
12165;SDS011;6146;48.128;11.476;2023-11-19T07:47:11;0.43;;;0.43;;
12165;SDS011;6146;48.128;11.476;2023-11-19T07:49:37;0.30;;;0.30;;
12165;SDS011;6146;48.128;11.476;2023-11-19T07:52:03;1.17;;;0.60;;
12165;SDS011;6146;48.128;11.476;2023-11-19T07:54:29;1.70;;;0.37;;
12165;SDS011;6146;48.128;11.476;2023-11-19T07:56:54;0.30;;;0.30;;
12165;SDS011;6146;48.128;11.476;2023-11-19T07:59:20;0.30;;;0.30;;
12165;SDS011;6146;48.128;11.476;2023-11-19T08:01:46;0.30;;;0.30;;
12165;SDS011;6146;48.128;11.476;2023-11-19T08:04:12;0.30;;;0.30;;
12165;SDS011;6146;48.128;11.476;2023-11-19T08:06:37;0.40;;;0.40;;
12165;SDS011;6146;48.128;11.476;2023-11-19T08:09:03;0.63;;;0.30;;
12165;SDS011;6146;48.128;11.476;2023-11-19T08:11:29;0.40;;;0.40;;
12165;SDS011;6146;48.128;11.476;2023-11-19T08:13:54;0.40;;;0.40;;
12165;SDS011;6146;48.128;11.476;2023-11-19T08:16:20;0.47;;;0.47;;
12165;SDS011;6146;48.128;11.476;2023-11-19T08:18:45;0.50;;;0.40;;
12165;SDS011;6146;48.128;11.476;2023-11-19T08:21:11;0.30;;;0.30;;
12165;SDS011;6146;48.128;11.476;2023-11-19T08:23:37;1.03;;;0.33;;
12165;SDS011;6146;48.128;11.476;2023-11-19T08:26:03;0.37;;;0.37;;
12165;SDS011;6146;48.128;11.476;2023-11-19T08:28:29;0.40;;;0.40;;
12165;SDS011;6146;48.128;11.476;2023-11-19T08:30:56;0.50;;;0.50;;
12165;SDS011;6146;48.128;11.476;2023-11-19T08:33:21;0.50;;;0.50;;
12165;SDS011;6146;48.128;11.476;2023-11-19T08:35:47;0.50;;;0.50;;
12165;SDS011;6146;48.128;11.476;2023-11-19T08:38:13;0.53;;;0.53;;
12165;SDS011;6146;48.128;11.476;2023-11-19T08:40:39;0.50;;;0.50;;
12165;SDS011;6146;48.128;11.476;2023-11-19T08:43:04;0.93;;;0.60;;
12165;SDS011;6146;48.128;11.476;2023-11-19T08:45:31;0.50;;;0.50;;
12165;SDS011;6146;48.128;11.476;2023-11-19T08:47:56;0.60;;;0.60;;
12165;SDS011;6146;48.128;11.476;2023-11-19T08:50:22;0.50;;;0.50;;
12165;SDS011;6146;48.128;11.476;2023-11-19T08:52:48;0.70;;;0.60;;
12165;SDS011;6146;48.128;11.476;2023-11-19T08:55:14;0.40;;;0.40;;
12165;SDS011;6146;48.128;11.476;2023-11-19T08:57:39;0.40;;;0.40;;
12165;SDS011;6146;48.128;11.476;2023-11-19T09:00:05;0.50;;;0.50;;
12165;SDS011;6146;48.128;11.476;2023-11-19T09:02:35;1.17;;;0.70;;
12165;SDS011;6146;48.128;11.476;2023-11-19T09:05:02;0.70;;;0.70;;
12165;SDS011;6146;48.128;11.476;2023-11-19T09:07:28;0.60;;;0.60;;
12165;SDS011;6146;48.128;11.476;2023-11-19T09:09:53;0.43;;;0.43;;
12165;SDS011;6146;48.128;11.476;2023-11-19T09:12:19;0.50;;;0.50;;
12165;SDS011;6146;48.128;11.476;2023-11-19T09:14:44;0.53;;;0.53;;
12165;SDS011;6146;48.128;11.476;2023-11-19T09:17:10;0.60;;;0.60;;
12165;SDS011;6146;48.128;11.476;2023-11-19T09:19:36;0.57;;;0.53;;
12165;SDS011;6146;48.128;11.476;2023-11-19T09:22:02;0.93;;;0.80;;
12165;SDS011;6146;48.128;11.476;2023-11-19T09:24:27;0.60;;;0.60;;
12165;SDS011;6146;48.128;11.476;2023-11-19T09:26:53;2.53;;;0.90;;
12165;SDS011;6146;48.128;11.476;2023-11-19T09:29:19;1.00;;;0.70;;
12165;SDS011;6146;48.128;11.476;2023-11-19T09:31:46;0.77;;;0.73;;
12165;SDS011;6146;48.128;11.476;2023-11-19T09:34:12;0.70;;;0.60;;
12165;SDS011;6146;48.128;11.476;2023-11-19T09:36:37;0.73;;;0.73;;
12165;SDS011;6146;48.128;11.476;2023-11-19T09:39:04;0.60;;;0.60;;
12165;SDS011;6146;48.128;11.476;2023-11-19T09:41:30;0.80;;;0.80;;
12165;SDS011;6146;48.128;11.476;2023-11-19T09:43:57;1.03;;;0.97;;
12165;SDS011;6146;48.128;11.476;2023-11-19T09:46:23;0.77;;;0.77;;
12165;SDS011;6146;48.128;11.476;2023-11-19T09:48:49;0.70;;;0.70;;
12165;SDS011;6146;48.128;11.476;2023-11-19T09:51:19;0.70;;;0.70;;
12165;SDS011;6146;48.128;11.476;2023-11-19T09:53:45;0.63;;;0.63;;
12165;SDS011;6146;48.128;11.476;2023-11-19T09:56:11;0.70;;;0.70;;
12165;SDS011;6146;48.128;11.476;2023-11-19T09:58:37;0.70;;;0.70;;
12165;SDS011;6146;48.128;11.476;2023-11-19T10:01:03;0.80;;;0.80;;
12165;SDS011;6146;48.128;11.476;2023-11-19T10:03:32;0.80;;;0.80;;
12165;SDS011;6146;48.128;11.476;2023-11-19T10:06:04;1.17;;;0.70;;
12165;SDS011;6146;48.128;11.476;2023-11-19T10:08:32;0.90;;;0.63;;
12165;SDS011;6146;48.128;11.476;2023-11-19T10:10:58;0.90;;;0.90;;
12165;SDS011;6146;48.128;11.476;2023-11-19T10:13:27;1.10;;;0.90;;
12165;SDS011;6146;48.128;11.476;2023-11-19T10:15:53;0.70;;;0.70;;
12165;SDS011;6146;48.128;11.476;2023-11-19T10:18:25;0.53;;;0.53;;
12165;SDS011;6146;48.128;11.476;2023-11-19T10:20:51;0.70;;;0.70;;
12165;SDS011;6146;48.128;11.476;2023-11-19T10:23:17;0.83;;;0.80;;
12165;SDS011;6146;48.128;11.476;2023-11-19T10:25:43;1.70;;;0.60;;
12165;SDS011;6146;48.128;11.476;2023-11-19T10:28:09;0.60;;;0.60;;
12165;SDS011;6146;48.128;11.476;2023-11-19T10:30:34;0.70;;;0.70;;
12165;SDS011;6146;48.128;11.476;2023-11-19T10:33:10;1.43;;;0.70;;
12165;SDS011;6146;48.128;11.476;2023-11-19T10:35:52;0.70;;;0.57;;
12165;SDS011;6146;48.128;11.476;2023-11-19T10:38:18;1.40;;;0.80;;
12165;SDS011;6146;48.128;11.476;2023-11-19T10:40:44;0.67;;;0.60;;
12165;SDS011;6146;48.128;11.476;2023-11-19T10:43:09;1.40;;;0.70;;
12165;SDS011;6146;48.128;11.476;2023-11-19T10:45:36;0.50;;;0.50;;
12165;SDS011;6146;48.128;11.476;2023-11-19T10:48:02;1.17;;;0.50;;
12165;SDS011;6146;48.128;11.476;2023-11-19T10:50:38;0.67;;;0.67;;
12165;SDS011;6146;48.128;11.476;2023-11-19T10:53:05;0.53;;;0.53;;
12165;SDS011;6146;48.128;11.476;2023-11-19T10:55:33;0.63;;;0.47;;
12165;SDS011;6146;48.128;11.476;2023-11-19T10:58:03;0.60;;;0.60;;
12165;SDS011;6146;48.128;11.476;2023-11-19T11:03:21;0.40;;;0.40;;
12165;SDS011;6146;48.128;11.476;2023-11-19T11:05:50;0.63;;;0.57;;
12165;SDS011;6146;48.128;11.476;2023-11-19T11:08:17;0.47;;;0.40;;
12165;SDS011;6146;48.128;11.476;2023-11-19T11:10:53;0.47;;;0.47;;
12165;SDS011;6146;48.128;11.476;2023-11-19T11:13:20;0.40;;;0.40;;
12165;SDS011;6146;48.128;11.476;2023-11-19T11:15:47;0.50;;;0.50;;
12165;SDS011;6146;48.128;11.476;2023-11-19T11:18:14;0.70;;;0.60;;
12165;SDS011;6146;48.128;11.476;2023-11-19T11:20:40;0.63;;;0.63;;
12165;SDS011;6146;48.128;11.476;2023-11-19T11:23:14;0.70;;;0.60;;
12165;SDS011;6146;48.128;11.476;2023-11-19T11:40:00;0.60;;;0.60;;
12165;SDS011;6146;48.128;11.476;2023-11-19T11:42:31;0.80;;;0.47;;
12165;SDS011;6146;48.128;11.476;2023-11-19T11:45:07;1.50;;;1.27;;
12165;SDS011;6146;48.128;11.476;2023-11-19T11:50:10;0.77;;;0.47;;
12165;SDS011;6146;48.128;11.476;2023-11-19T11:55:34;0.40;;;0.40;;
12165;SDS011;6146;48.128;11.476;2023-11-19T11:58:01;0.63;;;0.60;;
12165;SDS011;6146;48.128;11.476;2023-11-19T12:00:36;1.00;;;0.90;;
12165;SDS011;6146;48.128;11.476;2023-11-19T12:03:04;1.00;;;0.80;;
12165;SDS011;6146;48.128;11.476;2023-11-19T12:05:31;1.07;;;0.97;;
12165;SDS011;6146;48.128;11.476;2023-11-19T12:08:05;0.73;;;0.73;;
12165;SDS011;6146;48.128;11.476;2023-11-19T12:10:48;0.33;;;0.33;;
12165;SDS011;6146;48.128;11.476;2023-11-19T12:13:15;2.40;;;1.60;;
12165;SDS011;6146;48.128;11.476;2023-11-19T12:18:28;0.50;;;0.43;;
12165;SDS011;6146;48.128;11.476;2023-11-19T12:20:55;0.40;;;0.40;;
12165;SDS011;6146;48.128;11.476;2023-11-19T12:23:26;0.80;;;0.80;;
12165;SDS011;6146;48.128;11.476;2023-11-19T12:25:54;0.67;;;0.67;;
12165;SDS011;6146;48.128;11.476;2023-11-19T12:28:20;0.43;;;0.43;;
12165;SDS011;6146;48.128;11.476;2023-11-19T12:30:46;0.60;;;0.50;;
12165;SDS011;6146;48.128;11.476;2023-11-19T12:33:13;0.40;;;0.40;;
12165;SDS011;6146;48.128;11.476;2023-11-19T12:35:46;0.60;;;0.60;;
12165;SDS011;6146;48.128;11.476;2023-11-19T12:38:20;1.20;;;0.77;;
12165;SDS011;6146;48.128;11.476;2023-11-19T12:41:05;0.40;;;0.40;;
12165;SDS011;6146;48.128;11.476;2023-11-19T12:43:35;0.60;;;0.40;;
12165;SDS011;6146;48.128;11.476;2023-11-19T12:46:02;1.10;;;0.40;;
12165;SDS011;6146;48.128;11.476;2023-11-19T12:48:47;0.40;;;0.40;;
12165;SDS011;6146;48.128;11.476;2023-11-19T12:51:13;0.87;;;0.57;;
12165;SDS011;6146;48.128;11.476;2023-11-19T12:53:49;0.73;;;0.70;;
12165;SDS011;6146;48.128;11.476;2023-11-19T12:56:15;3.83;;;0.50;;
12165;SDS011;6146;48.128;11.476;2023-11-19T12:58:41;0.73;;;0.73;;
12165;SDS011;6146;48.128;11.476;2023-11-19T13:01:08;0.80;;;0.77;;
12165;SDS011;6146;48.128;11.476;2023-11-19T13:03:36;0.60;;;0.60;;
12165;SDS011;6146;48.128;11.476;2023-11-19T13:08:42;1.00;;;0.90;;
12165;SDS011;6146;48.128;11.476;2023-11-19T13:11:09;0.60;;;0.60;;
12165;SDS011;6146;48.128;11.476;2023-11-19T13:13:55;0.50;;;0.50;;
12165;SDS011;6146;48.128;11.476;2023-11-19T13:16:22;0.70;;;0.70;;
12165;SDS011;6146;48.128;11.476;2023-11-19T13:18:48;0.70;;;0.70;;
12165;SDS011;6146;48.128;11.476;2023-11-19T13:21:13;0.80;;;0.80;;
12165;SDS011;6146;48.128;11.476;2023-11-19T13:23:39;0.50;;;0.50;;
12165;SDS011;6146;48.128;11.476;2023-11-19T13:26:05;0.57;;;0.57;;
12165;SDS011;6146;48.128;11.476;2023-11-19T13:28:31;1.30;;;1.20;;
12165;SDS011;6146;48.128;11.476;2023-11-19T13:30:56;1.23;;;0.97;;
12165;SDS011;6146;48.128;11.476;2023-11-19T13:33:23;1.13;;;1.03;;
12165;SDS011;6146;48.128;11.476;2023-11-19T13:35:48;0.97;;;0.60;;
12165;SDS011;6146;48.128;11.476;2023-11-19T13:38:14;1.47;;;1.23;;
12165;SDS011;6146;48.128;11.476;2023-11-19T13:40:39;1.20;;;1.10;;
12165;SDS011;6146;48.128;11.476;2023-11-19T13:43:05;1.20;;;1.10;;
12165;SDS011;6146;48.128;11.476;2023-11-19T13:45:31;1.77;;;0.83;;
12165;SDS011;6146;48.128;11.476;2023-11-19T13:47:56;1.13;;;1.00;;
12165;SDS011;6146;48.128;11.476;2023-11-19T13:50:21;1.07;;;1.00;;
12165;SDS011;6146;48.128;11.476;2023-11-19T13:52:48;1.23;;;0.90;;
12165;SDS011;6146;48.128;11.476;2023-11-19T13:55:14;0.97;;;0.90;;
12165;SDS011;6146;48.128;11.476;2023-11-19T13:57:40;1.53;;;0.97;;
12165;SDS011;6146;48.128;11.476;2023-11-19T14:00:08;1.10;;;1.00;;
12165;SDS011;6146;48.128;11.476;2023-11-19T14:02:48;2.67;;;0.70;;
12165;SDS011;6146;48.128;11.476;2023-11-19T14:05:14;2.83;;;1.00;;
12165;SDS011;6146;48.128;11.476;2023-11-19T14:07:42;0.70;;;0.70;;
12165;SDS011;6146;48.128;11.476;2023-11-19T14:10:09;0.70;;;0.70;;
12165;SDS011;6146;48.128;11.476;2023-11-19T14:12:36;0.70;;;0.70;;
12165;SDS011;6146;48.128;11.476;2023-11-19T14:15:02;1.23;;;0.83;;
12165;SDS011;6146;48.128;11.476;2023-11-19T14:17:31;0.90;;;0.90;;
12165;SDS011;6146;48.128;11.476;2023-11-19T14:19:58;0.60;;;0.60;;
12165;SDS011;6146;48.128;11.476;2023-11-19T14:22:24;1.63;;;0.77;;
12165;SDS011;6146;48.128;11.476;2023-11-19T14:24:50;0.53;;;0.53;;
12165;SDS011;6146;48.128;11.476;2023-11-19T14:27:15;0.60;;;0.60;;
12165;SDS011;6146;48.128;11.476;2023-11-19T14:29:42;1.03;;;0.70;;
12165;SDS011;6146;48.128;11.476;2023-11-19T14:32:09;0.90;;;0.63;;
12165;SDS011;6146;48.128;11.476;2023-11-19T14:34:35;0.60;;;0.60;;
12165;SDS011;6146;48.128;11.476;2023-11-19T14:37:00;1.50;;;0.60;;
12165;SDS011;6146;48.128;11.476;2023-11-19T14:39:26;1.30;;;0.80;;
12165;SDS011;6146;48.128;11.476;2023-11-19T14:41:52;0.63;;;0.63;;
12165;SDS011;6146;48.128;11.476;2023-11-19T14:44:19;0.97;;;0.87;;
12165;SDS011;6146;48.128;11.476;2023-11-19T14:46:45;0.47;;;0.47;;
12165;SDS011;6146;48.128;11.476;2023-11-19T14:49:11;0.87;;;0.83;;
12165;SDS011;6146;48.128;11.476;2023-11-19T14:51:39;0.70;;;0.67;;
12165;SDS011;6146;48.128;11.476;2023-11-19T14:54:05;0.90;;;0.63;;
12165;SDS011;6146;48.128;11.476;2023-11-19T14:56:31;0.67;;;0.67;;
12165;SDS011;6146;48.128;11.476;2023-11-19T14:58:56;1.33;;;0.87;;
12165;SDS011;6146;48.128;11.476;2023-11-19T15:01:23;0.70;;;0.70;;
12165;SDS011;6146;48.128;11.476;2023-11-19T15:03:49;0.93;;;0.73;;
12165;SDS011;6146;48.128;11.476;2023-11-19T15:06:15;2.17;;;0.90;;
12165;SDS011;6146;48.128;11.476;2023-11-19T15:08:40;1.03;;;0.90;;
12165;SDS011;6146;48.128;11.476;2023-11-19T15:11:07;0.90;;;0.80;;
12165;SDS011;6146;48.128;11.476;2023-11-19T15:13:34;1.10;;;0.80;;
12165;SDS011;6146;48.128;11.476;2023-11-19T15:16:02;0.73;;;0.73;;